createdAt,value
2024-04-25T00:03:44.911Z,31.70
2024-04-25T00:08:48.403Z,32.17
2024-04-25T00:13:52.373Z,31.80
2024-04-25T00:18:55.955Z,33.40
2024-04-25T00:24:01.576Z,34.03
2024-04-25T00:29:05.377Z,33.77
2024-04-25T00:34:09.303Z,32.47
2024-04-25T00:39:13.346Z,33.37
2024-04-25T00:44:17.040Z,32.67
2024-04-25T00:49:21.654Z,33.60
2024-04-25T00:54:25.514Z,35.23
2024-04-25T00:59:29.718Z,33.13
2024-04-25T01:04:35.022Z,32.63
2024-04-25T01:09:38.592Z,31.83
2024-04-25T01:14:42.686Z,31.67
2024-04-25T01:19:46.399Z,30.93
2024-04-25T01:24:50.655Z,29.37
2024-04-25T01:29:55.449Z,30.23
2024-04-25T01:35:00.050Z,30.43
2024-04-25T01:40:04.217Z,30.77
2024-04-25T01:45:08.336Z,32.17
2024-04-25T01:50:12.064Z,29.77
2024-04-25T01:55:16.212Z,31.00
2024-04-25T02:00:19.546Z,29.53
2024-04-25T02:05:23.069Z,29.93
2024-04-25T02:10:26.707Z,27.47
2024-04-25T02:15:31.061Z,28.33
2024-04-25T02:20:53.355Z,28.57
2024-04-25T02:25:56.448Z,29.93
2024-04-25T02:31:00.731Z,28.20
2024-04-25T02:36:05.449Z,30.17
2024-04-25T02:41:09.132Z,29.00
2024-04-25T02:46:13.030Z,28.30
2024-04-25T02:51:16.454Z,28.07
2024-04-25T02:56:20.318Z,27.43
2024-04-25T03:01:24.007Z,26.60
2024-04-25T03:06:28.032Z,28.30
2024-04-25T03:11:31.650Z,27.70
2024-04-25T03:16:35.737Z,27.57
2024-04-25T03:21:39.407Z,25.77
2024-04-25T03:26:43.258Z,24.43
2024-04-25T03:31:47.370Z,22.27
2024-04-25T03:37:00.051Z,23.43
2024-04-25T03:42:06.612Z,23.17
2024-04-25T03:47:10.461Z,24.57
2024-04-25T03:52:14.218Z,25.23
2024-04-25T03:57:17.941Z,25.03
2024-04-25T04:02:30.540Z,25.73
2024-04-25T04:07:34.753Z,26.37
2024-04-25T04:12:45.211Z,26.63
2024-04-25T04:17:49.220Z,27.27
2024-04-25T04:22:59.069Z,27.17
2024-04-25T04:28:02.799Z,28.67
2024-04-25T04:33:06.763Z,25.97
2024-04-25T04:38:10.651Z,26.77
2024-04-25T04:43:14.609Z,28.37
2024-04-25T04:48:23.539Z,26.67
2024-04-25T04:53:35.235Z,28.33
2024-04-25T04:58:39.731Z,25.90
2024-04-25T05:03:45.312Z,26.20
2024-04-25T05:08:49.247Z,27.10
2024-04-25T05:13:52.908Z,28.67
2024-04-25T05:18:56.834Z,27.07
2024-04-25T05:24:02.561Z,28.47
2024-04-25T05:29:08.580Z,27.77
2024-04-25T05:34:12.480Z,27.07
2024-04-25T05:39:16.187Z,24.70
2024-04-25T05:44:20.382Z,26.57
2024-04-25T05:49:24.318Z,26.33
2024-04-25T05:54:27.988Z,25.73
2024-04-25T05:59:31.867Z,25.27
2024-04-25T06:04:35.842Z,25.27
2024-04-25T06:09:39.799Z,24.37
2024-04-25T06:14:43.923Z,24.93
2024-04-25T06:19:48.598Z,25.27
2024-04-25T06:24:52.505Z,23.70
2024-04-25T06:29:56.257Z,24.17
2024-04-25T06:35:01.370Z,23.43
2024-04-25T06:40:06.007Z,25.07
2024-04-25T06:45:10.073Z,23.57
2024-04-25T06:50:13.784Z,20.43
2024-04-25T06:55:17.670Z,20.20
2024-04-25T07:00:22.766Z,20.70
2024-04-25T07:05:26.831Z,21.17
2024-04-25T07:10:30.752Z,20.70
2024-04-25T07:15:34.742Z,21.73
2024-04-25T07:20:38.411Z,21.73
2024-04-25T07:25:44.601Z,21.63
2024-04-25T07:30:49.020Z,19.50
2024-04-25T07:35:52.416Z,20.77
2024-04-25T07:40:56.096Z,19.10
2024-04-25T07:45:59.965Z,18.63
2024-04-25T07:51:06.782Z,21.40
2024-04-25T07:56:10.899Z,19.33
2024-04-25T08:01:20.467Z,19.33
2024-04-25T08:06:25.372Z,18.33
2024-04-25T08:11:29.333Z,18.33
2024-04-25T08:16:34.157Z,18.57
2024-04-25T08:21:38.846Z,18.13
2024-04-25T08:26:42.659Z,18.23
2024-04-25T08:31:46.576Z,18.67
2024-04-25T08:36:49.723Z,17.70
2024-04-25T08:41:54.700Z,18.73
2024-04-25T08:46:59.989Z,18.13
2024-04-25T08:52:07.479Z,18.10
2024-04-25T08:57:11.235Z,19.80
2024-04-25T09:02:15.289Z,15.83
2024-04-25T09:07:19.176Z,15.67
2024-04-25T09:12:23.136Z,17.33
2024-04-25T09:17:28.221Z,17.13
2024-04-25T09:22:33.065Z,16.07
2024-04-25T09:27:36.930Z,17.07
2024-04-25T09:32:44.066Z,16.60
2024-04-25T09:37:48.465Z,14.30
2024-04-25T09:42:52.402Z,14.93
2024-04-25T09:47:58.175Z,12.23
2024-04-25T09:53:09.739Z,12.23
2024-04-25T09:58:36.592Z,9.30
2024-04-25T10:03:41.794Z,9.73
2024-04-25T10:08:46.011Z,8.47
2024-04-25T10:13:51.203Z,7.77
2024-04-25T10:18:55.343Z,5.97
2024-04-25T10:24:11.686Z,6.97
2024-04-25T10:29:16.255Z,5.73
2024-04-25T10:34:20.029Z,5.60
2024-04-25T10:39:23.703Z,6.37
2024-04-25T10:44:27.498Z,7.40
2024-04-25T10:49:31.507Z,8.47
2024-04-25T10:54:38.806Z,7.70
2024-04-25T10:59:43.001Z,7.50
2024-04-25T11:04:46.659Z,7.80
2024-04-25T11:09:50.214Z,6.30
2024-04-25T11:14:54.035Z,5.60
2024-04-25T11:20:01.423Z,6.10
2024-04-25T11:25:20.577Z,4.70
2024-04-25T11:30:26.002Z,5.40
2024-04-25T11:35:29.800Z,5.00
2024-04-25T11:40:37.895Z,4.20
2024-04-25T11:45:45.930Z,4.27
2024-04-25T11:50:50.278Z,3.90
2024-04-25T11:55:54.318Z,3.93
2024-04-25T12:00:58.221Z,4.43
2024-04-25T12:06:03.172Z,4.90
2024-04-25T12:11:07.272Z,5.63
2024-04-25T12:16:11.218Z,4.90
2024-04-25T12:21:14.929Z,3.90
2024-04-25T12:26:18.645Z,4.00
2024-04-25T12:31:22.422Z,4.03
2024-04-25T12:36:26.361Z,4.30
2024-04-25T12:41:30.397Z,5.60
2024-04-25T12:46:34.550Z,5.07
2024-04-25T12:51:38.417Z,4.93
2024-04-25T12:56:42.571Z,3.20
2024-04-25T13:01:46.775Z,2.90
2024-04-25T13:06:51.696Z,3.93
2024-04-25T13:11:55.361Z,3.37
2024-04-25T13:16:59.493Z,3.57
2024-04-25T13:22:03.764Z,3.50
2024-04-25T13:27:07.625Z,3.13
2024-04-25T13:32:11.920Z,3.20
2024-04-25T13:37:15.868Z,3.13
2024-04-25T13:42:19.784Z,2.37
2024-04-25T13:47:23.541Z,2.63
2024-04-25T13:52:27.460Z,2.30
2024-04-25T13:57:31.726Z,2.30
2024-04-25T14:02:35.563Z,1.93
2024-04-25T14:07:39.402Z,2.40
2024-04-25T14:12:43.131Z,2.50
2024-04-25T14:17:47.009Z,2.00
2024-04-25T14:22:50.585Z,2.30
2024-04-25T14:28:12.735Z,2.77
2024-04-25T14:33:16.669Z,3.00
2024-04-25T14:38:20.621Z,2.30
2024-04-25T14:43:24.380Z,2.17
2024-04-25T14:48:29.948Z,2.70
2024-04-25T14:53:33.883Z,2.40
2024-04-25T14:58:37.816Z,2.77
2024-04-25T15:03:41.574Z,2.80
2024-04-25T15:08:45.038Z,3.00
2024-04-25T15:13:51.885Z,2.50
2024-04-25T15:18:55.758Z,2.50
2024-04-25T15:24:02.231Z,3.00
2024-04-25T15:29:09.405Z,2.57
2024-04-25T15:34:13.767Z,3.47
2024-04-25T15:39:17.520Z,2.57
2024-04-25T15:44:21.162Z,2.23
2024-04-25T15:49:24.975Z,2.30
2024-04-25T15:54:28.578Z,2.43
2024-04-25T15:59:32.563Z,2.30
2024-04-25T16:04:39.474Z,2.50
2024-04-25T16:09:47.394Z,2.50
2024-04-25T16:14:54.025Z,2.80
2024-04-25T16:19:58.395Z,2.40
2024-04-25T16:25:04.751Z,2.57
2024-04-25T16:30:09.003Z,2.30
2024-04-25T16:35:12.771Z,1.70
2024-04-25T16:40:19.786Z,1.60
2024-04-25T16:45:23.441Z,1.70
2024-04-25T16:50:27.454Z,1.80
2024-04-25T16:55:31.564Z,1.50
2024-04-25T17:00:35.515Z,2.27
2024-04-25T17:05:39.471Z,1.90
2024-04-25T17:10:43.294Z,2.10
2024-04-25T17:15:48.059Z,1.93
2024-04-25T17:20:51.994Z,2.17
2024-04-25T17:25:55.704Z,2.60
2024-04-25T17:30:59.118Z,2.10
2024-04-25T17:36:02.777Z,2.70
2024-04-25T17:41:06.739Z,2.63
2024-04-25T17:46:10.816Z,2.70
2024-04-25T17:51:21.904Z,3.20
2024-04-25T17:56:25.436Z,2.97
2024-04-25T18:01:29.058Z,3.03
2024-04-25T18:06:32.662Z,3.00
2024-04-25T18:11:36.509Z,3.43
2024-04-25T18:16:40.196Z,3.10
2024-04-25T18:21:43.867Z,3.50
2024-04-25T18:26:48.853Z,3.20
2024-04-25T18:31:52.517Z,3.43
2024-04-25T18:36:56.205Z,3.80
2024-04-25T18:41:59.878Z,4.30
2024-04-25T18:47:03.710Z,4.47
2024-04-25T18:52:07.774Z,7.43
2024-04-25T18:57:11.310Z,8.97
2024-04-25T19:02:14.650Z,8.70
2024-04-25T19:07:18.041Z,9.10
2024-04-25T19:12:21.378Z,8.77
2024-04-25T19:17:26.291Z,7.80
2024-04-25T19:22:30.137Z,8.33
2024-04-25T19:27:34.760Z,8.23
2024-04-25T19:32:38.758Z,7.83
2024-04-25T19:37:42.351Z,10.23
2024-04-25T19:42:45.753Z,8.60
2024-04-25T19:47:53.247Z,9.20
2024-04-25T19:52:59.970Z,9.03
2024-04-25T19:58:03.454Z,8.97
2024-04-25T20:03:06.962Z,8.60
2024-04-25T20:08:12.961Z,8.87
2024-04-25T20:13:16.509Z,8.73
2024-04-25T20:18:39.055Z,9.50
2024-04-25T20:23:46.702Z,8.90
2024-04-25T20:28:50.237Z,8.50
2024-04-25T20:33:54.810Z,7.83
2024-04-25T20:38:59.184Z,9.63
2024-04-25T20:44:16.332Z,8.53
2024-04-25T20:49:19.976Z,9.13
2024-04-25T20:54:23.761Z,10.10
2024-04-25T20:59:27.448Z,10.07
2024-04-25T21:04:31.015Z,9.13
2024-04-25T21:09:34.574Z,9.10
2024-04-25T21:14:39.314Z,8.60
2024-04-25T21:19:43.679Z,5.60
2024-04-25T21:24:47.445Z,6.40
2024-04-25T21:29:50.890Z,7.07
2024-04-25T21:34:54.668Z,6.90
2024-04-25T21:39:57.695Z,7.33
2024-04-25T21:45:03.484Z,7.67
2024-04-25T21:50:07.555Z,7.43
2024-04-25T21:55:11.840Z,7.10
2024-04-25T22:00:15.575Z,6.70
2024-04-25T22:05:19.040Z,6.37
2024-04-25T22:10:22.804Z,7.50
2024-04-25T22:15:26.462Z,7.17
2024-04-25T22:20:29.649Z,6.50
2024-04-25T22:25:32.805Z,6.80
2024-04-25T22:30:36.372Z,7.50
2024-04-25T22:35:39.852Z,9.83
2024-04-25T22:40:43.098Z,10.10
2024-04-25T22:45:46.717Z,12.23
2024-04-25T22:50:50.300Z,13.40
2024-04-25T22:55:54.059Z,13.67
2024-04-25T23:00:57.633Z,13.00
2024-04-25T23:06:01.294Z,14.00
2024-04-25T23:11:05.027Z,13.53
2024-04-25T23:16:15.036Z,13.63
2024-04-25T23:21:18.743Z,13.40
2024-04-25T23:26:22.497Z,14.17
2024-04-25T23:31:26.744Z,13.57
2024-04-25T23:36:30.525Z,14.20
2024-04-25T23:41:34.043Z,15.33
2024-04-25T23:46:37.863Z,13.33
2024-04-25T23:51:41.530Z,14.77
2024-04-25T23:56:45.143Z,14.57
